createdAt,value
2018-09-26T00:03:08.009Z,100794.05
2018-09-26T00:06:13.196Z,100776.44
2018-09-26T00:09:20.785Z,100760.86
2018-09-26T00:12:26.074Z,100761.52
2018-09-26T00:15:32.186Z,100751.54
2018-09-26T00:18:38.039Z,100739.25
2018-09-26T00:21:43.867Z,100745.77
2018-09-26T00:24:48.882Z,100755.71
2018-09-26T00:27:55.633Z,100745.18
2018-09-26T00:31:01.863Z,100739.13
2018-09-26T00:34:06.871Z,100738.37
2018-09-26T00:37:12.991Z,100732.80
2018-09-26T00:40:18.091Z,100736.24
2018-09-26T00:43:23.881Z,100734.97
2018-09-26T00:46:29.939Z,100719.48
2018-09-26T00:49:36.206Z,100719.84
2018-09-26T00:52:42.686Z,100717.97
2018-09-26T00:55:47.749Z,100719.22
2018-09-26T00:58:53.472Z,100714.59
2018-09-26T01:01:58.528Z,100717.90
2018-09-26T01:05:05.172Z,100702.77
2018-09-26T01:08:11.306Z,100707.39
2018-09-26T01:11:16.449Z,100714.39
2018-09-26T01:14:22.625Z,100722.89
2018-09-26T01:17:29.326Z,100724.70
2018-09-26T01:20:35.229Z,100725.10
2018-09-26T01:23:42.171Z,100727.64
2018-09-26T01:26:47.998Z,100725.14
2018-09-26T01:29:55.322Z,100723.17
2018-09-26T01:33:02.426Z,100720.78
2018-09-26T01:36:07.451Z,100719.04
2018-09-26T01:39:12.575Z,100725.39
2018-09-26T01:42:18.153Z,100721.14
2018-09-26T01:45:24.757Z,100714.80
2018-09-26T01:48:30.758Z,100720.59
2018-09-26T01:51:36.548Z,100715.23
2018-09-26T01:54:41.587Z,100707.62
2018-09-26T01:57:47.829Z,100713.23
2018-09-26T02:00:53.990Z,100716.35
2018-09-26T02:04:00.530Z,100718.24
2018-09-26T02:07:06.689Z,100725.23
2018-09-26T02:10:11.889Z,100729.22
2018-09-26T02:13:16.910Z,100729.00
2018-09-26T02:16:21.997Z,100723.71
2018-09-26T02:19:27.027Z,100715.69
2018-09-26T02:22:32.961Z,100716.08
2018-09-26T02:25:39.848Z,100712.34
2018-09-26T02:28:44.892Z,100720.53
2018-09-26T02:31:50.781Z,100713.92
2018-09-26T02:34:56.946Z,100709.39
2018-09-26T02:38:03.156Z,100705.59
2018-09-26T02:41:10.058Z,100691.01
2018-09-26T02:44:16.942Z,100686.98
2018-09-26T02:47:23.726Z,100682.49
2018-09-26T02:50:29.575Z,100683.91
2018-09-26T02:53:37.156Z,100670.02
2018-09-26T02:56:42.163Z,100662.91
2018-09-26T02:59:48.304Z,100652.77
2018-09-26T03:02:53.338Z,100657.72
2018-09-26T03:05:59.078Z,100656.02
2018-09-26T03:09:06.895Z,100663.98
2018-09-26T03:12:13.456Z,100663.22
2018-09-26T03:15:19.520Z,100660.25
2018-09-26T03:18:25.626Z,100650.84
2018-09-26T03:21:30.870Z,100646.46
2018-09-26T03:24:37.578Z,100639.22
2018-09-26T03:27:42.610Z,100639.03
2018-09-26T03:30:48.879Z,100642.47
2018-09-26T03:33:56.058Z,100634.86
2018-09-26T03:37:02.307Z,100637.04
2018-09-26T03:40:09.209Z,100637.28
2018-09-26T03:43:15.878Z,100640.14
2018-09-26T03:46:20.922Z,100641.84
2018-09-26T03:49:28.762Z,100646.01
2018-09-26T03:52:33.815Z,100648.05
2018-09-26T03:55:40.554Z,100655.66
2018-09-26T03:58:46.691Z,100653.12
2018-09-26T04:01:53.380Z,100653.80
2018-09-26T04:04:58.404Z,100651.02
2018-09-26T04:08:04.687Z,100652.42
2018-09-26T04:11:11.251Z,100657.63
2018-09-26T04:14:17.271Z,100655.94
2018-09-26T04:17:23.358Z,100648.84
2018-09-26T04:20:29.605Z,100643.33
2018-09-26T04:23:35.381Z,100637.30
2018-09-26T04:26:41.414Z,100644.55
2018-09-26T04:29:47.304Z,100643.28
2018-09-26T04:32:53.518Z,100639.63
2018-09-26T04:35:59.857Z,100635.14
2018-09-26T04:39:07.854Z,100642.16
2018-09-26T04:42:13.785Z,100638.94
2018-09-26T04:45:21.506Z,100631.88
2018-09-26T04:48:28.062Z,100632.29
2018-09-26T04:51:36.533Z,100624.55
2018-09-26T04:54:44.151Z,100629.98
2018-09-26T04:57:51.335Z,100639.20
2018-09-26T05:00:57.463Z,100644.47
2018-09-26T05:04:03.306Z,100649.12
2018-09-26T05:07:11.560Z,100653.14
2018-09-26T05:10:17.910Z,100668.54
2018-09-26T05:25:22.313Z,100669.34
2018-09-26T05:28:29.131Z,100671.70
2018-09-26T05:31:35.906Z,100661.16
2018-09-26T05:34:42.478Z,100653.14
2018-09-26T05:37:48.321Z,100649.89
2018-09-26T05:40:55.222Z,100652.06
2018-09-26T05:44:01.434Z,100648.13
2018-09-26T05:47:08.231Z,100650.75
2018-09-26T05:50:15.104Z,100663.61
2018-09-26T05:53:21.278Z,100668.05
2018-09-26T05:56:28.399Z,100672.02
2018-09-26T05:59:34.773Z,100666.14
2018-09-26T06:02:40.841Z,100668.34
2018-09-26T06:05:46.714Z,100664.17
2018-09-26T06:08:52.666Z,100668.20
2018-09-26T06:11:58.538Z,100672.55
2018-09-26T06:15:04.281Z,100679.01
2018-09-26T06:18:10.506Z,100683.78
2018-09-26T06:21:15.981Z,100690.66
2018-09-26T06:24:21.125Z,100680.11
2018-09-26T06:27:26.449Z,100677.84
2018-09-26T06:30:33.058Z,100675.02
2018-09-26T06:33:38.914Z,100669.63
2018-09-26T06:36:44.699Z,100668.23
2018-09-26T06:40:53.234Z,100668.27
2018-09-26T06:44:00.229Z,100673.02
2018-09-26T06:47:05.461Z,100668.55
2018-09-26T06:50:10.546Z,100668.69
2018-09-26T06:53:15.582Z,100671.41
2018-09-26T06:56:20.611Z,100667.47
2018-09-26T06:59:25.620Z,100669.55
2018-09-26T07:02:31.666Z,100668.09
2018-09-26T07:05:36.809Z,100664.59
2018-09-26T07:08:42.874Z,100668.52
2018-09-26T07:11:48.847Z,100669.02
2018-09-26T07:14:55.163Z,100656.11
2018-09-26T07:18:01.021Z,100656.39
2018-09-26T07:21:06.291Z,100650.49
2018-09-26T07:24:12.861Z,100653.52
2018-09-26T07:27:19.149Z,100659.62
2018-09-26T07:30:24.290Z,100665.32
2018-09-26T07:33:30.092Z,100671.00
2018-09-26T07:36:35.098Z,100657.34
2018-09-26T07:39:40.313Z,100645.30
2018-09-26T07:42:47.209Z,100642.14
2018-09-26T07:45:53.417Z,100636.97
2018-09-26T07:48:59.210Z,100635.97
2018-09-26T07:52:05.170Z,100631.64
2018-09-26T07:55:10.334Z,100626.50
2018-09-26T07:58:17.278Z,100629.35
2018-09-26T08:01:23.844Z,100630.40
2018-09-26T08:04:30.625Z,100625.25
2018-09-26T08:07:36.741Z,100629.24
2018-09-26T08:10:42.591Z,100644.17
2018-09-26T08:13:49.621Z,100646.84
2018-09-26T08:16:55.498Z,100647.81
2018-09-26T08:20:02.001Z,100650.34
2018-09-26T08:23:07.135Z,100648.80
2018-09-26T08:26:14.131Z,100645.95
2018-09-26T08:29:20.361Z,100644.64
2018-09-26T08:32:27.591Z,100645.92
2018-09-26T08:35:34.400Z,100633.00
2018-09-26T08:38:41.206Z,100631.31
2018-09-26T08:41:47.404Z,100633.17
2018-09-26T08:48:24.078Z,100647.24
2018-09-26T08:51:30.843Z,100643.95
2018-09-26T08:54:36.752Z,100643.09
2018-09-26T08:57:42.967Z,100643.95
2018-09-26T09:00:50.932Z,100644.71
2018-09-26T09:03:56.938Z,100633.36
2018-09-26T09:07:03.784Z,100634.91
2018-09-26T09:17:23.692Z,100630.48
2018-09-26T09:20:33.159Z,100631.47
2018-09-26T09:23:38.151Z,100621.59
2018-09-26T09:26:50.795Z,100612.93
2018-09-26T09:29:57.640Z,100617.44
2018-09-26T09:33:04.620Z,100614.78
2018-09-26T09:36:11.625Z,100617.61
2018-09-26T09:39:16.854Z,100615.39
2018-09-26T09:42:22.048Z,100608.25
2018-09-26T09:45:35.449Z,100618.46
2018-09-26T09:48:42.370Z,100620.06
2018-09-26T09:51:49.331Z,100618.60
2018-09-26T09:54:55.717Z,100618.31
2018-09-26T09:58:01.678Z,100626.33
2018-09-26T10:01:14.027Z,100614.03
2018-09-26T10:04:19.073Z,100614.89
2018-09-26T10:07:24.954Z,100620.91
2018-09-26T10:10:30.827Z,100620.70
2018-09-26T10:13:35.899Z,100613.08
2018-09-26T10:16:41.641Z,100601.68
2018-09-26T10:19:47.350Z,100593.95
2018-09-26T10:22:52.413Z,100583.44
2018-09-26T10:25:58.356Z,100567.91
2018-09-26T10:29:03.472Z,100560.45
2018-09-26T10:32:09.210Z,100557.97
2018-09-26T10:35:15.233Z,100559.72
2018-09-26T10:38:21.538Z,100560.98
2018-09-26T10:41:27.375Z,100556.87
2018-09-26T10:44:33.191Z,100555.95
2018-09-26T10:47:40.523Z,100558.36
2018-09-26T10:50:45.503Z,100554.52
2018-09-26T10:53:52.001Z,100544.98
2018-09-26T10:56:57.820Z,100546.73
2018-09-26T11:00:03.719Z,100549.37
2018-09-26T11:03:09.793Z,100548.16
2018-09-26T11:06:16.106Z,100546.77
2018-09-26T11:09:21.168Z,100544.12
2018-09-26T11:12:27.868Z,100545.91
2018-09-26T11:15:33.476Z,100548.44
2018-09-26T11:18:41.295Z,100549.96
2018-09-26T11:21:47.447Z,100548.51
2018-09-26T11:24:53.658Z,100535.52
2018-09-26T11:28:00.522Z,100544.79
2018-09-26T11:31:06.615Z,100536.82
2018-09-26T11:34:13.017Z,100534.70
2018-09-26T11:37:18.137Z,100535.09
2018-09-26T11:40:24.056Z,100530.22
2018-09-26T11:43:29.843Z,100521.47
2018-09-26T11:46:36.447Z,100524.11
2018-09-26T11:49:41.608Z,100523.12
2018-09-26T11:52:47.873Z,100512.67
2018-09-26T11:55:54.518Z,100515.95
2018-09-26T11:59:00.284Z,100516.34
2018-09-26T12:02:07.089Z,100516.11
2018-09-26T12:05:13.097Z,100510.56
2018-09-26T12:08:19.401Z,100505.30
2018-09-26T12:25:21.142Z,100469.49
2018-09-26T12:28:27.623Z,100469.48
2018-09-26T12:31:34.058Z,100460.77
2018-09-26T12:34:39.985Z,100454.44
2018-09-26T12:37:46.308Z,100464.33
2018-09-26T12:40:52.786Z,100459.34
2018-09-26T12:43:57.965Z,100460.55
2018-09-26T12:47:04.739Z,100457.45
2018-09-26T12:50:11.502Z,100462.11
2018-09-26T12:53:16.684Z,100463.56
2018-09-26T12:56:21.777Z,100458.34
2018-09-26T12:59:27.989Z,100453.46
2018-09-26T13:02:39.136Z,100447.76
2018-09-26T13:05:48.097Z,100441.73
2018-09-26T13:09:04.282Z,100438.91
2018-09-26T13:12:13.175Z,100435.22
2018-09-26T13:15:23.636Z,100434.72
2018-09-26T13:18:32.917Z,100432.92
2018-09-26T13:21:38.555Z,100427.63
2018-09-26T13:24:45.787Z,100434.30
2018-09-26T13:27:52.925Z,100420.78
2018-09-26T13:30:58.939Z,100415.80
2018-09-26T13:34:05.361Z,100420.59
2018-09-26T13:37:13.378Z,100409.34
2018-09-26T13:40:19.179Z,100416.61
2018-09-26T13:43:26.197Z,100414.95
2018-09-26T13:46:33.191Z,100408.22
2018-09-26T13:49:41.551Z,100393.27
2018-09-26T13:52:48.593Z,100393.80
2018-09-26T13:55:53.918Z,100391.09
2018-09-26T13:59:03.565Z,100395.52
2018-09-26T14:02:09.828Z,100390.63
2018-09-26T14:05:21.491Z,100389.94
2018-09-26T14:08:32.814Z,100390.93
2018-09-26T14:11:42.819Z,100387.59
2018-09-26T14:14:57.138Z,100385.08
2018-09-26T14:18:03.635Z,100382.84
2018-09-26T14:21:26.073Z,100383.63
2018-09-26T14:24:33.924Z,100380.69
2018-09-26T14:27:42.798Z,100377.37
2018-09-26T14:30:48.978Z,100374.69
2018-09-26T14:33:58.551Z,100371.97
2018-09-26T14:37:06.895Z,100368.67
2018-09-26T14:40:17.057Z,100374.64
2018-09-26T14:43:26.948Z,100374.24
2018-09-26T14:46:39.073Z,100372.03
2018-09-26T14:49:47.607Z,100369.72
2018-09-26T14:52:57.455Z,100371.03
2018-09-26T14:56:08.619Z,100367.28
2018-09-26T14:59:20.905Z,100369.83
2018-09-26T15:02:26.989Z,100367.28
2018-09-26T15:05:33.328Z,100366.12
2018-09-26T15:08:42.437Z,100362.94
2018-09-26T15:11:57.193Z,100362.50
2018-09-26T15:15:07.666Z,100358.02
2018-09-26T15:18:13.823Z,100358.27
2018-09-26T15:21:27.505Z,100352.16
2018-09-26T15:24:41.605Z,100351.92
2018-09-26T15:27:50.636Z,100353.29
2018-09-26T15:31:08.407Z,100353.87
2018-09-26T15:34:16.037Z,100357.59
2018-09-26T15:37:46.201Z,100355.28
2018-09-26T15:40:51.438Z,100351.84
2018-09-26T15:43:58.145Z,100354.52
2018-09-26T15:47:05.140Z,100347.45
2018-09-26T15:50:11.722Z,100348.83
2018-09-26T15:53:17.994Z,100349.41
2018-09-26T15:56:24.279Z,100344.73
2018-09-26T15:59:29.800Z,100347.02
2018-09-26T16:02:35.135Z,100346.20
2018-09-26T16:05:41.366Z,100349.23
2018-09-26T16:08:47.328Z,100340.82
2018-09-26T16:11:54.109Z,100343.76
2018-09-26T16:15:10.346Z,100342.58
2018-09-26T16:18:18.943Z,100344.10
2018-09-26T16:21:24.802Z,100341.92
2018-09-26T16:24:35.630Z,100341.83
2018-09-26T16:27:44.471Z,100350.50
2018-09-26T16:30:50.787Z,100347.80
2018-09-26T16:33:56.961Z,100350.00
2018-09-26T16:37:03.600Z,100349.86
2018-09-26T16:40:13.121Z,100354.09
2018-09-26T16:43:21.513Z,100356.30
2018-09-26T16:46:27.839Z,100364.91
2018-09-26T16:49:33.866Z,100357.21
2018-09-26T16:52:40.229Z,100361.80
2018-09-26T16:55:45.690Z,100355.98
2018-09-26T16:58:53.356Z,100362.20
2018-09-26T17:01:58.546Z,100362.98
2018-09-26T17:05:06.196Z,100367.63
2018-09-26T17:08:13.837Z,100369.00
2018-09-26T17:11:23.710Z,100372.19
2018-09-26T17:14:29.235Z,100367.00
2018-09-26T17:17:35.391Z,100373.39
2018-09-26T17:20:43.592Z,100376.69
2018-09-26T17:23:50.570Z,100378.92
2018-09-26T17:26:56.447Z,100388.16
2018-09-26T17:30:03.635Z,100385.44
2018-09-26T17:33:10.732Z,100390.88
2018-09-26T17:36:17.600Z,100401.42
2018-09-26T17:39:24.585Z,100396.42
2018-09-26T17:56:29.878Z,100400.80
2018-09-26T17:59:35.118Z,100405.30
2018-09-26T18:02:41.007Z,100405.89
2018-09-26T18:05:48.112Z,100402.69
2018-09-26T18:08:54.431Z,100406.77
2018-09-26T18:12:00.514Z,100408.60
2018-09-26T18:15:07.654Z,100413.97
2018-09-26T18:18:12.879Z,100414.94
2018-09-26T18:21:19.555Z,100413.58
2018-09-26T18:24:25.793Z,100411.45
2018-09-26T18:27:32.774Z,100412.19
2018-09-26T18:30:39.968Z,100410.66
2018-09-26T18:33:48.221Z,100407.61
2018-09-26T18:36:54.255Z,100407.30
2018-09-26T18:40:00.377Z,100407.36
2018-09-26T18:43:06.566Z,100412.71
2018-09-26T18:46:12.797Z,100421.58
2018-09-26T18:49:20.774Z,100425.16
2018-09-26T18:52:28.565Z,100425.25
2018-09-26T18:55:37.002Z,100426.09
2018-09-26T18:58:44.723Z,100430.41
2018-09-26T19:01:50.690Z,100435.16
2018-09-26T19:04:59.094Z,100430.14
2018-09-26T19:08:04.765Z,100439.67
2018-09-26T19:11:10.525Z,100444.73
2018-09-26T19:14:16.798Z,100455.17
2018-09-26T19:17:23.566Z,100455.00
2018-09-26T19:20:29.517Z,100444.29
2018-09-26T19:23:34.509Z,100447.16
2018-09-26T19:26:40.165Z,100449.69
2018-09-26T19:29:46.084Z,100456.11
2018-09-26T19:32:52.963Z,100452.84
2018-09-26T19:35:59.411Z,100454.03
2018-09-26T19:39:07.092Z,100449.44
2018-09-26T19:42:13.690Z,100454.80
2018-09-26T19:45:19.763Z,100451.77
2018-09-26T19:48:26.717Z,100454.81
2018-09-26T19:51:32.457Z,100450.85
2018-09-26T19:54:39.446Z,100449.85
2018-09-26T19:57:45.519Z,100448.45
2018-09-26T20:00:52.410Z,100449.61
2018-09-26T20:03:58.560Z,100446.36
2018-09-26T20:07:05.092Z,100451.05
2018-09-26T20:10:11.469Z,100456.75
2018-09-26T20:13:17.991Z,100455.53
2018-09-26T20:16:24.883Z,100448.05
2018-09-26T20:19:31.655Z,100452.22
2018-09-26T20:22:37.739Z,100455.53
2018-09-26T20:25:43.557Z,100453.20
2018-09-26T20:28:49.913Z,100458.52
2018-09-26T20:31:55.690Z,100453.03
2018-09-26T20:35:01.600Z,100454.55
2018-09-26T20:38:07.507Z,100449.81
2018-09-26T20:41:14.181Z,100444.20
2018-09-26T20:44:20.325Z,100445.34
2018-09-26T20:47:25.966Z,100445.34
2018-09-26T20:50:33.257Z,100442.27
2018-09-26T20:53:39.006Z,100441.56
2018-09-26T20:56:45.804Z,100444.37
2018-09-26T20:59:52.465Z,100446.03
2018-09-26T21:02:59.787Z,100451.25
2018-09-26T21:06:06.530Z,100443.77
2018-09-26T21:09:13.418Z,100449.59
2018-09-26T21:14:53.067Z,100436.70
2018-09-26T21:18:00.119Z,100435.80
2018-09-26T21:21:06.605Z,100437.66
2018-09-26T21:24:13.926Z,100441.11
2018-09-26T21:27:20.510Z,100439.50
2018-09-26T21:30:27.195Z,100438.75
2018-09-26T21:33:33.380Z,100434.57
2018-09-26T21:36:38.405Z,100442.23
2018-09-26T21:39:45.237Z,100441.53
2018-09-26T21:42:51.455Z,100441.34
2018-09-26T21:45:58.061Z,100434.43
2018-09-26T21:49:04.312Z,100438.49
2018-09-26T21:52:10.978Z,100440.52
2018-09-26T21:55:18.231Z,100435.07
2018-09-26T21:58:25.130Z,100436.53
2018-09-26T22:01:39.353Z,100438.34
2018-09-26T22:04:45.235Z,100441.64
2018-09-26T22:07:51.437Z,100435.26
2018-09-26T22:10:56.457Z,100432.89
2018-09-26T22:14:02.598Z,100431.05
2018-09-26T22:17:09.640Z,100434.39
2018-09-26T22:20:17.395Z,100437.66
2018-09-26T22:23:24.254Z,100435.52
2018-09-26T22:26:30.023Z,100433.33
2018-09-26T22:29:36.193Z,100435.88
2018-09-26T22:32:43.046Z,100439.55
2018-09-26T22:35:49.191Z,100449.80
2018-09-26T22:38:56.081Z,100450.51
2018-09-26T22:42:02.050Z,100454.19
2018-09-26T22:45:08.516Z,100454.02
2018-09-26T22:48:13.505Z,100451.48
2018-09-26T22:51:18.666Z,100454.73
2018-09-26T22:54:24.446Z,100456.00
2018-09-26T22:57:30.542Z,100447.07
2018-09-26T23:00:37.181Z,100451.64
2018-09-26T23:03:43.230Z,100454.57
2018-09-26T23:06:49.357Z,100451.83
2018-09-26T23:09:55.161Z,100451.83
2018-09-26T23:13:00.954Z,100455.31
2018-09-26T23:16:06.666Z,100445.45
2018-09-26T23:19:11.780Z,100447.85
2018-09-26T23:22:18.392Z,100444.57
2018-09-26T23:25:24.455Z,100449.86
2018-09-26T23:28:31.373Z,100452.23
2018-09-26T23:31:37.212Z,100440.38
2018-09-26T23:34:43.434Z,100443.14
2018-09-26T23:37:49.386Z,100439.48
2018-09-26T23:40:55.658Z,100441.13
2018-09-26T23:44:02.124Z,100438.05
2018-09-26T23:47:07.886Z,100430.75
2018-09-26T23:50:14.044Z,100430.93
2018-09-26T23:53:21.238Z,100428.38
2018-09-26T23:56:27.084Z,100431.12
2018-09-26T23:59:32.945Z,100425.66
